createdAt,value
2023-01-28T00:00:49.668Z,100.00
2023-01-28T00:03:19.208Z,100.00
2023-01-28T00:05:46.813Z,100.00
2023-01-28T00:08:14.391Z,100.00
2023-01-28T00:10:42.769Z,100.00
2023-01-28T00:13:12.859Z,100.00
2023-01-28T00:15:39.682Z,100.00
2023-01-28T00:18:06.417Z,100.00
2023-01-28T00:20:33.639Z,100.00
2023-01-28T00:23:00.391Z,100.00
2023-01-28T00:25:27.493Z,100.00
2023-01-28T00:27:55.645Z,100.00
2023-01-28T00:30:22.431Z,100.00
2023-01-28T00:32:49.368Z,100.00
2023-01-28T00:35:16.293Z,100.00
2023-01-28T00:37:45.897Z,100.00
2023-01-28T00:40:13.371Z,100.00
2023-01-28T00:42:40.360Z,100.00
2023-01-28T00:45:09.414Z,100.00
2023-01-28T00:47:36.250Z,100.00
2023-01-28T00:50:03.304Z,100.00
2023-01-28T00:52:31.102Z,100.00
2023-01-28T00:54:57.792Z,100.00
2023-01-28T00:57:26.069Z,100.00
2023-01-28T00:59:52.884Z,100.00
2023-01-28T01:02:23.353Z,100.00
2023-01-28T01:04:50.488Z,100.00
2023-01-28T01:07:17.728Z,100.00
2023-01-28T01:09:46.400Z,100.00
2023-01-28T01:12:13.187Z,100.00
2023-01-28T01:14:40.069Z,100.00
2023-01-28T01:17:07.821Z,100.00
2023-01-28T01:19:37.381Z,100.00
2023-01-28T01:22:04.154Z,100.00
2023-01-28T01:24:32.118Z,100.00
2023-01-28T01:26:59.113Z,100.00
2023-01-28T01:29:27.962Z,100.00
2023-01-28T01:31:54.748Z,100.00
2023-01-28T01:34:22.366Z,100.00
2023-01-28T01:36:54.453Z,100.00
2023-01-28T01:39:21.557Z,100.00
2023-01-28T01:41:48.388Z,100.00
2023-01-28T01:44:54.448Z,100.00
2023-01-28T01:47:24.734Z,100.00
2023-01-28T01:49:51.596Z,100.00
2023-01-28T01:52:24.095Z,100.00
2023-01-28T01:54:55.453Z,100.00
2023-01-28T01:57:26.979Z,100.00
2023-01-28T01:59:54.739Z,100.00
2023-01-28T02:02:22.242Z,100.00
2023-01-28T02:04:49.078Z,100.00
2023-01-28T02:07:20.740Z,100.00
2023-01-28T02:09:47.525Z,100.00
2023-01-28T02:12:17.852Z,100.00
2023-01-28T02:14:47.941Z,100.00
2023-01-28T02:17:15.528Z,100.00
2023-01-28T02:19:48.101Z,100.00
2023-01-28T02:22:47.900Z,100.00
2023-01-28T02:25:58.160Z,100.00
2023-01-28T02:28:34.513Z,100.00
2023-01-28T02:31:09.218Z,100.00
2023-01-28T02:33:43.949Z,100.00
2023-01-28T02:36:19.197Z,100.00
2023-01-28T02:38:50.235Z,100.00
2023-01-28T02:41:26.012Z,100.00
2023-01-28T02:43:54.809Z,100.00
2023-01-28T02:46:35.155Z,100.00
2023-01-28T02:49:05.350Z,100.00
2023-01-28T02:51:43.182Z,100.00
2023-01-28T02:54:14.534Z,100.00
2023-01-28T02:56:48.671Z,100.00
2023-01-28T02:59:24.533Z,100.00
2023-01-28T03:01:57.828Z,100.00
2023-01-28T03:04:29.734Z,100.00
2023-01-28T03:07:02.125Z,100.00
2023-01-28T03:09:29.150Z,100.00
2023-01-28T03:12:00.469Z,100.00
2023-01-28T03:14:32.688Z,100.00
2023-01-28T03:17:01.178Z,100.00
2023-01-28T03:19:27.962Z,100.00
2023-01-28T03:21:56.219Z,100.00
2023-01-28T03:24:27.824Z,100.00
2023-01-28T03:26:58.322Z,100.00
2023-01-28T03:29:27.375Z,100.00
2023-01-28T03:31:57.631Z,100.00
2023-01-28T03:34:24.537Z,100.00
2023-01-28T03:36:52.369Z,100.00
2023-01-28T03:39:45.287Z,100.00
2023-01-28T03:42:14.779Z,100.00
2023-01-28T03:45:02.608Z,100.00
2023-01-28T03:47:32.331Z,100.00
2023-01-28T03:50:01.812Z,100.00
2023-01-28T03:52:33.623Z,100.00
2023-01-28T03:55:16.076Z,100.00
2023-01-28T03:57:44.227Z,100.00
2023-01-28T04:00:13.569Z,100.00
2023-01-28T04:02:44.683Z,100.00
2023-01-28T04:05:15.655Z,100.00
2023-01-28T04:07:46.409Z,100.00
2023-01-28T04:10:27.466Z,100.00
2023-01-28T04:13:04.985Z,100.00
2023-01-28T04:15:32.048Z,100.00
2023-01-28T04:18:00.145Z,100.00
2023-01-28T04:20:29.649Z,100.00
2023-01-28T04:22:59.606Z,100.00
2023-01-28T04:25:26.337Z,100.00
2023-01-28T04:27:53.759Z,100.00
2023-01-28T04:30:23.182Z,100.00
2023-01-28T04:33:14.675Z,100.00
2023-01-28T04:35:55.717Z,100.00
2023-01-28T04:38:41.440Z,100.00
2023-01-28T04:41:28.174Z,100.00
2023-01-28T04:43:59.254Z,100.00
2023-01-28T04:46:33.699Z,100.00
2023-01-28T04:49:04.371Z,100.00
2023-01-28T04:51:41.738Z,100.00
2023-01-28T04:54:17.496Z,100.00
2023-01-28T04:56:44.348Z,100.00
2023-01-28T04:59:11.253Z,100.00
2023-01-28T05:01:38.934Z,100.00
2023-01-28T05:04:08.002Z,100.00
2023-01-28T05:06:37.541Z,100.00
2023-01-28T05:09:09.348Z,100.00
2023-01-28T05:11:38.901Z,100.00
2023-01-28T05:19:46.276Z,100.00
2023-01-28T05:22:19.397Z,100.00
2023-01-28T05:24:59.628Z,100.00
2023-01-28T05:27:26.616Z,100.00
2023-01-28T05:29:53.670Z,100.00
2023-01-28T05:32:20.547Z,100.00
2023-01-28T05:34:49.471Z,100.00
2023-01-28T05:37:16.480Z,100.00
2023-01-28T05:39:46.425Z,100.00
2023-01-28T05:42:13.564Z,100.00
2023-01-28T05:44:45.314Z,100.00
2023-01-28T05:47:16.466Z,100.00
2023-01-28T05:49:53.388Z,100.00
2023-01-28T05:52:43.461Z,100.00
2023-01-28T05:55:20.855Z,100.00
2023-01-28T05:57:48.368Z,100.00
2023-01-28T06:00:19.174Z,100.00
2023-01-28T06:02:46.556Z,100.00
2023-01-28T06:05:17.900Z,100.00
2023-01-28T06:07:45.270Z,100.00
2023-01-28T06:10:17.252Z,100.00
2023-01-28T06:12:44.348Z,100.00
2023-01-28T06:15:29.847Z,100.00
2023-01-28T06:20:44.729Z,100.00
2023-01-28T06:23:12.310Z,100.00
2023-01-28T06:25:39.104Z,100.00
2023-01-28T06:28:10.758Z,100.00
2023-01-28T06:30:37.831Z,100.00
2023-01-28T06:33:04.569Z,100.00
2023-01-28T06:35:31.426Z,100.00
2023-01-28T06:37:59.549Z,100.00
2023-01-28T06:40:26.261Z,100.00
2023-01-28T06:42:56.824Z,100.00
2023-01-28T06:45:24.080Z,100.00
2023-01-28T06:47:51.137Z,100.00
2023-01-28T06:50:18.356Z,100.00
2023-01-28T06:52:45.585Z,100.00
2023-01-28T06:55:13.837Z,100.00
2023-01-28T06:57:41.523Z,100.00
2023-01-28T07:00:12.421Z,100.00
2023-01-28T07:02:41.367Z,100.00
2023-01-28T07:07:50.465Z,100.00
2023-01-28T07:12:59.905Z,100.00
2023-01-28T07:18:08.488Z,100.00
2023-01-28T07:20:35.438Z,100.00
2023-01-28T07:23:02.343Z,100.00
2023-01-28T07:25:32.542Z,100.00
2023-01-28T07:27:59.231Z,100.00
2023-01-28T07:30:26.468Z,100.00
2023-01-28T07:32:54.517Z,100.00
2023-01-28T07:35:21.387Z,100.00
2023-01-28T07:37:51.705Z,100.00
2023-01-28T07:40:18.583Z,100.00
2023-01-28T07:42:46.847Z,100.00
2023-01-28T07:45:14.438Z,100.00
2023-01-28T07:47:41.257Z,100.00
2023-01-28T07:50:09.416Z,100.00
2023-01-28T07:52:37.542Z,100.00
2023-01-28T07:55:05.068Z,100.00
2023-01-28T07:57:31.881Z,100.00
2023-01-28T07:59:59.897Z,100.00
2023-01-28T08:02:26.560Z,100.00
2023-01-28T08:04:53.250Z,100.00
2023-01-28T08:07:20.045Z,100.00
2023-01-28T08:09:46.830Z,100.00
2023-01-28T08:12:13.569Z,100.00
2023-01-28T08:14:40.239Z,100.00
2023-01-28T08:17:08.412Z,100.00
2023-01-28T08:19:35.047Z,100.00
2023-01-28T08:22:01.633Z,100.00
2023-01-28T08:24:28.429Z,100.00
2023-01-28T08:26:55.185Z,100.00
2023-01-28T08:29:21.857Z,100.00
2023-01-28T08:31:48.670Z,100.00
2023-01-28T08:34:19.023Z,100.00
2023-01-28T08:36:46.777Z,100.00
2023-01-28T08:41:57.045Z,100.00
2023-01-28T08:44:24.142Z,100.00
2023-01-28T08:46:50.856Z,100.00
2023-01-28T08:49:19.218Z,100.00
2023-01-28T08:51:46.620Z,100.00
2023-01-28T08:54:13.417Z,100.00
2023-01-28T08:56:40.475Z,100.00
2023-01-28T08:59:07.389Z,100.00
2023-01-28T09:01:34.371Z,100.00
2023-01-28T09:13:57.304Z,100.00
2023-01-28T09:16:24.193Z,100.00
2023-01-28T09:18:50.864Z,100.00
2023-01-28T09:21:18.124Z,100.00
2023-01-28T09:23:44.787Z,100.00
2023-01-28T09:26:11.528Z,100.00
2023-01-28T09:28:38.330Z,100.00
2023-01-28T09:31:08.972Z,100.00
2023-01-28T09:33:37.850Z,100.00
2023-01-28T09:36:07.117Z,100.00
2023-01-28T09:38:34.356Z,100.00
2023-01-28T09:41:02.557Z,100.00
2023-01-28T09:43:50.430Z,100.00
2023-01-28T09:46:18.745Z,100.00
2023-01-28T09:48:49.007Z,100.00
2023-01-28T09:51:28.834Z,99.91
2023-01-28T09:53:59.195Z,96.42
2023-01-28T09:56:29.727Z,92.06
2023-01-28T09:58:58.220Z,89.96
2023-01-28T10:01:44.546Z,85.16
2023-01-28T10:04:21.920Z,82.23
2023-01-28T10:06:58.255Z,84.02
2023-01-28T10:09:35.547Z,80.81
2023-01-28T10:12:16.270Z,80.26
2023-01-28T10:14:57.606Z,77.48
2023-01-28T10:17:29.371Z,78.10
2023-01-28T10:20:01.042Z,81.75
2023-01-28T10:22:32.236Z,79.60
2023-01-28T10:25:03.694Z,79.03
2023-01-28T10:27:31.911Z,78.35
2023-01-28T10:29:59.684Z,78.88
2023-01-28T10:32:30.247Z,70.84
2023-01-28T10:34:58.049Z,66.48
2023-01-28T10:37:24.711Z,67.52
2023-01-28T10:39:53.350Z,70.79
2023-01-28T10:42:28.355Z,68.88
2023-01-28T10:44:59.196Z,69.90
2023-01-28T10:47:35.335Z,68.26
2023-01-28T10:50:05.151Z,67.86
2023-01-28T10:52:32.284Z,67.89
2023-01-28T10:55:00.366Z,64.81
2023-01-28T10:57:27.405Z,64.39
2023-01-28T10:59:54.377Z,65.61
2023-01-28T11:02:28.427Z,66.33
2023-01-28T11:05:06.500Z,67.24
2023-01-28T11:07:33.912Z,65.58
2023-01-28T11:10:01.539Z,63.70
2023-01-28T11:12:31.054Z,62.29
2023-01-28T11:14:58.645Z,64.06
2023-01-28T11:17:28.472Z,63.62
2023-01-28T11:19:58.363Z,66.84
2023-01-28T11:22:33.102Z,63.82
2023-01-28T11:25:00.690Z,64.91
2023-01-28T11:27:30.548Z,64.05
2023-01-28T11:29:58.563Z,65.82
2023-01-28T11:32:26.628Z,65.21
2023-01-28T11:34:55.870Z,65.24
2023-01-28T11:37:24.284Z,67.06
2023-01-28T11:40:03.130Z,72.96
2023-01-28T11:42:30.590Z,75.29
2023-01-28T11:44:57.377Z,78.93
2023-01-28T11:47:42.500Z,79.36
2023-01-28T11:50:23.082Z,81.07
2023-01-28T11:53:06.391Z,82.31
2023-01-28T11:56:03.757Z,85.92
2023-01-28T11:58:41.951Z,84.73
2023-01-28T12:01:12.997Z,86.05
2023-01-28T12:03:55.159Z,87.06
2023-01-28T12:06:38.871Z,87.66
2023-01-28T12:09:15.891Z,85.42
2023-01-28T12:11:58.589Z,84.75
2023-01-28T12:14:37.313Z,86.16
2023-01-28T12:17:17.236Z,85.53
2023-01-28T12:19:58.911Z,86.09
2023-01-28T12:22:51.355Z,84.45
2023-01-28T12:28:43.032Z,81.79
2023-01-28T12:31:29.071Z,84.01
2023-01-28T13:54:30.171Z,88.59
2023-01-28T14:19:13.802Z,91.92
2023-01-28T14:30:08.101Z,92.71
2023-01-28T14:32:43.793Z,93.71
2023-01-28T15:25:20.832Z,100.00
2023-01-28T15:27:49.817Z,100.00
2023-01-28T15:30:23.703Z,100.00
2023-01-28T15:32:58.732Z,100.00
2023-01-28T15:35:25.980Z,100.00
2023-01-28T15:37:52.802Z,100.00
2023-01-28T15:40:22.589Z,100.00
2023-01-28T15:42:49.671Z,100.00
2023-01-28T15:45:18.433Z,100.00
2023-01-28T15:47:46.650Z,100.00
2023-01-28T15:55:44.665Z,100.00
2023-01-28T15:58:34.427Z,100.00
2023-01-28T16:01:21.424Z,100.00
2023-01-28T16:04:04.938Z,100.00
2023-01-28T16:16:08.032Z,100.00
2023-01-28T16:30:16.241Z,100.00
2023-01-28T16:32:44.347Z,100.00
2023-01-28T16:35:15.861Z,100.00
2023-01-28T16:37:42.755Z,100.00
2023-01-28T16:40:11.931Z,100.00
2023-01-28T16:42:38.629Z,100.00
2023-01-28T16:45:06.835Z,100.00
2023-01-28T16:47:33.540Z,100.00
2023-01-28T16:50:00.283Z,100.00
2023-01-28T16:52:28.478Z,100.00
2023-01-28T16:54:55.136Z,100.00
2023-01-28T16:57:22.767Z,100.00
2023-01-28T16:59:49.751Z,100.00
2023-01-28T17:02:17.046Z,100.00
2023-01-28T17:46:57.625Z,100.00
2023-01-28T17:49:24.696Z,100.00
2023-01-28T17:51:51.529Z,100.00
2023-01-28T17:54:18.580Z,100.00
2023-01-28T17:56:45.321Z,100.00
2023-01-28T17:59:12.365Z,100.00
2023-01-28T18:01:39.131Z,100.00
2023-01-28T18:04:07.395Z,100.00
2023-01-28T18:06:35.449Z,100.00
2023-01-28T18:09:03.040Z,100.00
2023-01-28T18:11:30.065Z,100.00
2023-01-28T18:13:56.806Z,100.00
2023-01-28T18:16:23.599Z,100.00
2023-01-28T18:18:50.583Z,100.00
2023-01-28T18:21:22.876Z,100.00
2023-01-28T18:26:50.133Z,100.00
2023-01-28T18:32:34.997Z,100.00
2023-01-28T18:49:46.509Z,100.00
2023-01-28T18:55:16.191Z,100.00
2023-01-28T18:57:43.427Z,100.00
2023-01-28T19:03:23.842Z,100.00
2023-01-28T19:05:55.555Z,100.00
2023-01-28T19:08:26.623Z,100.00
2023-01-28T19:13:38.037Z,100.00
2023-01-28T19:16:11.218Z,100.00
2023-01-28T19:18:39.070Z,100.00
2023-01-28T19:21:07.210Z,100.00
2023-01-28T19:23:49.232Z,100.00
2023-01-28T19:26:16.862Z,100.00
2023-01-28T19:28:45.168Z,100.00
2023-01-28T19:31:13.412Z,100.00
2023-01-28T19:33:40.083Z,100.00
2023-01-28T19:36:07.133Z,100.00
2023-01-28T19:38:33.742Z,100.00
2023-01-28T19:41:03.304Z,100.00
2023-01-28T19:43:30.254Z,100.00
2023-01-28T19:45:57.145Z,100.00
2023-01-28T19:48:25.418Z,100.00
2023-01-28T19:50:52.248Z,100.00
2023-01-28T19:53:19.236Z,100.00
2023-01-28T19:55:46.205Z,100.00
2023-01-28T19:58:13.444Z,100.00
2023-01-28T20:00:40.845Z,100.00
2023-01-28T20:03:07.789Z,100.00
2023-01-28T20:05:36.050Z,100.00
2023-01-28T20:08:03.546Z,100.00
2023-01-28T20:10:30.737Z,100.00
2023-01-28T20:12:57.535Z,100.00
2023-01-28T20:15:24.175Z,100.00
2023-01-28T20:17:50.789Z,100.00
2023-01-28T20:20:17.924Z,100.00
2023-01-28T20:22:45.895Z,100.00
2023-01-28T20:25:12.629Z,100.00
2023-01-28T20:27:39.491Z,100.00
2023-01-28T20:30:07.411Z,100.00
2023-01-28T20:32:34.205Z,100.00
2023-01-28T20:35:00.987Z,100.00
2023-01-28T20:37:27.763Z,100.00
2023-01-28T20:39:55.875Z,100.00
2023-01-28T20:42:22.650Z,100.00
2023-01-28T20:44:49.512Z,100.00
2023-01-28T20:47:16.206Z,100.00
2023-01-28T20:49:43.123Z,100.00
2023-01-28T20:52:09.966Z,100.00
2023-01-28T20:54:36.820Z,100.00
2023-01-28T20:57:05.050Z,100.00
2023-01-28T20:59:31.763Z,100.00
2023-01-28T21:01:58.700Z,100.00
2023-01-28T21:04:25.466Z,100.00
2023-01-28T21:06:52.235Z,100.00
2023-01-28T21:09:19.112Z,100.00
2023-01-28T21:11:45.773Z,100.00
2023-01-28T21:14:13.869Z,100.00
2023-01-28T21:16:40.757Z,100.00
2023-01-28T21:19:07.461Z,100.00
2023-01-28T21:21:34.288Z,100.00
2023-01-28T21:24:01.711Z,100.00
2023-01-28T21:26:28.890Z,100.00
2023-01-28T21:28:55.612Z,100.00
2023-01-28T21:31:25.963Z,100.00
2023-01-28T21:33:54.291Z,100.00
2023-01-28T21:36:22.502Z,100.00
2023-01-28T21:38:52.802Z,100.00
2023-01-28T21:41:19.679Z,100.00
2023-01-28T21:43:48.926Z,100.00
2023-01-28T21:46:15.799Z,100.00
2023-01-28T21:48:45.720Z,100.00
2023-01-28T21:51:12.856Z,100.00
2023-01-28T21:53:41.064Z,100.00
2023-01-28T21:56:09.426Z,100.00
2023-01-28T21:58:37.440Z,100.00
2023-01-28T22:01:09.592Z,100.00
2023-01-28T22:03:36.287Z,100.00
2023-01-28T22:06:04.698Z,100.00
2023-01-28T22:08:31.357Z,100.00
2023-01-28T22:11:01.982Z,100.00
2023-01-28T22:13:29.536Z,100.00
2023-01-28T22:15:56.259Z,100.00
2023-01-28T22:18:23.226Z,100.00
2023-01-28T22:20:56.828Z,100.00
2023-01-28T22:23:25.186Z,100.00
2023-01-28T22:25:52.085Z,100.00
2023-01-28T22:28:19.036Z,100.00
2023-01-28T22:30:46.108Z,100.00
2023-01-28T22:33:13.305Z,100.00
2023-01-28T22:35:40.233Z,100.00
2023-01-28T22:38:08.555Z,100.00
2023-01-28T22:40:37.007Z,100.00
2023-01-28T22:43:04.416Z,100.00
2023-01-28T22:45:31.242Z,100.00
2023-01-28T22:47:58.208Z,100.00
2023-01-28T22:50:25.010Z,100.00
2023-01-28T22:52:51.763Z,100.00
2023-01-28T22:55:18.631Z,100.00
2023-01-28T22:57:46.749Z,100.00
2023-01-28T23:00:15.941Z,100.00
2023-01-28T23:02:43.155Z,100.00
2023-01-28T23:05:10.407Z,100.00
2023-01-28T23:07:37.432Z,100.00
2023-01-28T23:10:05.374Z,100.00
2023-01-28T23:12:32.233Z,100.00
2023-01-28T23:15:00.499Z,100.00
2023-01-28T23:17:27.288Z,100.00
2023-01-28T23:19:55.544Z,100.00
2023-01-28T23:22:25.085Z,100.00
2023-01-28T23:24:51.879Z,100.00
2023-01-28T23:27:18.903Z,100.00
2023-01-28T23:29:45.844Z,100.00
2023-01-28T23:32:14.247Z,100.00
2023-01-28T23:34:43.071Z,100.00
2023-01-28T23:37:11.274Z,100.00
2023-01-28T23:39:38.327Z,100.00
2023-01-28T23:42:14.105Z,100.00
2023-01-28T23:44:40.779Z,100.00
2023-01-28T23:47:08.079Z,100.00
2023-01-28T23:49:36.594Z,100.00
2023-01-28T23:52:04.114Z,100.00
2023-01-28T23:54:30.837Z,100.00
2023-01-28T23:56:57.847Z,100.00
2023-01-28T23:59:24.718Z,100.00
